Time;durP1;ratioP1;P1;durP2;ratioP2;P2;SDS_P1;SDS_P2;PMS_P1;PMS_P2;Temp;Humidity;BMP_temperature;BMP_pressure;BME280_temperature;BME280_humidity;BME280_pressure;Samples;Min_cycle;Max_cycle;Signal;HPM_P1;HPM_P2
2021/12/30 00:02:21;;;;;;;61.20;24.90;;;;;;;1.41;100.00;98281.28;4304442;33;20045;-74
2021/12/30 00:04:48;;;;;;;67.68;26.40;;;;;;;1.11;100.00;98240.37;4301789;33;20026;-73
2021/12/30 00:07:14;;;;;;;63.33;24.25;;;;;;;1.23;100.00;98262.56;4303850;33;20095;-76
2021/12/30 00:09:40;;;;;;;56.05;23.95;;;;;;;1.22;100.00;98255.63;4301430;33;20100;-74
2021/12/30 00:12:08;;;;;;;68.20;26.85;;;;;;;1.34;100.00;98274.34;4300456;33;20041;-74
2021/12/30 00:14:34;;;;;;;60.78;24.08;;;;;;;1.12;100.00;98237.50;4307726;33;20063;-74
2021/12/30 00:17:01;;;;;;;61.85;23.77;;;;;;;0.98;100.00;98231.41;4307446;33;20049;-73
2021/12/30 00:19:27;;;;;;;59.97;24.40;;;;;;;1.10;100.00;98242.19;4294800;33;20386;-75
2021/12/30 00:21:54;;;;;;;64.60;23.52;;;;;;;1.38;100.00;98281.69;4300935;33;20815;-74
2021/12/30 00:24:21;;;;;;;66.65;28.02;;;;;;;1.42;100.00;98280.25;4310911;33;20107;-74
2021/12/30 00:26:47;;;;;;;62.85;22.60;;;;;;;1.35;100.00;98273.34;4309877;33;20025;-74
2021/12/30 00:29:14;;;;;;;57.05;23.73;;;;;;;1.30;100.00;98279.28;4310855;33;20062;-74
2021/12/30 00:31:40;;;;;;;60.42;24.25;;;;;;;1.30;100.00;98267.84;4309189;33;20046;-74
2021/12/30 00:34:07;;;;;;;65.47;23.83;;;;;;;1.35;100.00;98266.19;4311112;33;20049;-73
2021/12/30 00:36:34;;;;;;;56.78;24.55;;;;;;;1.08;100.00;98218.53;4310639;33;20044;-73
2021/12/30 00:39:00;;;;;;;69.37;26.55;;;;;;;1.13;100.00;98225.06;4310412;33;20386;-73
2021/12/30 00:41:26;;;;;;;72.35;28.62;;;;;;;1.40;100.00;98269.03;4310936;33;20480;-73
2021/12/30 00:43:53;;;;;;;62.38;25.52;;;;;;;1.35;100.00;98260.88;4309099;33;20049;-74
2021/12/30 00:46:19;;;;;;;61.33;25.48;;;;;;;1.08;100.00;98223.81;4310959;33;20044;-73
2021/12/30 00:48:46;;;;;;;61.85;25.12;;;;;;;1.26;100.00;98256.81;4298082;33;20100;-73
2021/12/30 00:51:13;;;;;;;59.50;25.12;;;;;;;1.29;100.00;98245.81;4311430;33;20384;-73
2021/12/30 00:53:41;;;;;;;69.87;27.40;;;;;;;1.30;100.00;98252.75;4307882;33;20078;-74
2021/12/30 00:56:14;;;;;;;70.20;26.98;;;;;;;1.31;100.00;98251.75;4310713;33;20048;-73
2021/12/30 00:58:40;;;;;;;75.50;27.98;;;;;;;1.32;100.00;98276.41;4310884;33;20053;-73
2021/12/30 01:01:07;;;;;;;75.87;29.73;;;;;;;1.31;100.00;98270.31;4310926;33;20045;-74
2021/12/30 01:03:34;;;;;;;76.82;28.95;;;;;;;1.04;100.00;98238.53;4310653;33;20078;-74
2021/12/30 01:06:02;;;;;;;73.90;28.08;;;;;;;1.19;100.00;98271.97;4308659;33;20062;-73
2021/12/30 01:08:28;;;;;;;70.25;27.08;;;;;;;1.26;100.00;98280.69;4310812;33;20044;-74
2021/12/30 01:10:55;;;;;;;79.12;30.95;;;;;;;1.09;100.00;98251.97;4310319;33;20433;-73
2021/12/30 01:13:26;;;;;;;72.35;25.65;;;;;;;1.22;100.00;98279.50;4297671;33;20142;-73
2021/12/30 01:16:03;;;;;;;70.12;28.77;;;;;;;1.25;100.00;98287.03;4309759;33;20098;-75
2021/12/30 01:18:41;;;;;;;73.22;27.15;;;;;;;1.21;100.00;98281.34;4313334;33;20041;-73
2021/12/30 01:21:12;;;;;;;78.40;28.35;;;;;;;1.24;100.00;98288.06;4313378;33;20067;-73
2021/12/30 01:23:41;;;;;;;74.05;26.50;;;;;;;1.18;100.00;98275.62;4297757;33;20066;-76
2021/12/30 01:26:09;;;;;;;77.65;27.40;;;;;;;1.18;100.00;98280.91;4313121;33;20114;-73
2021/12/30 01:28:35;;;;;;;77.43;28.95;;;;;;;1.21;100.00;98294.59;4312576;33;20448;-75
2021/12/30 01:31:03;;;;;;;74.35;28.92;;;;;;;1.20;100.00;98289.50;4311400;33;20092;-74
2021/12/30 01:33:30;;;;;;;81.25;31.90;;;;;;;0.91;100.00;98238.56;4311432;33;20397;-74
2021/12/30 01:35:56;;;;;;;77.40;30.17;;;;;;;1.12;100.00;98261.38;4312489;33;20049;-73
2021/12/30 01:38:23;;;;;;;59.15;24.42;;;;;;;0.83;100.00;98230.81;4312117;33;20108;-73
2021/12/30 01:40:53;;;;;;;74.70;27.77;;;;;;;1.14;100.00;98285.84;4312902;33;20029;-73
2021/12/30 01:43:20;;;;;;;75.30;26.98;;;;;;;1.20;100.00;98289.50;4313412;33;20029;-74
2021/12/30 01:45:47;;;;;;;77.07;27.73;;;;;;;0.85;100.00;98239.41;4311362;33;20052;-73
2021/12/30 01:48:14;;;;;;;80.00;27.17;;;;;;;1.04;100.00;98265.06;4286279;33;20049;-73
2021/12/30 01:50:40;;;;;;;97.07;29.15;;;;;;;1.00;100.00;98247.91;4298319;33;20036;-72
2021/12/30 01:53:08;;;;;;;93.47;26.05;;;;;;;1.03;100.00;98258.09;4285279;33;20436;-72
2021/12/30 01:55:36;;;;;;;107.20;25.92;;;;;;;1.29;100.00;98292.75;4310370;33;20344;-73
2021/12/30 01:58:03;;;;;;;80.15;27.17;;;;;;;1.31;100.00;98291.53;4312874;33;20415;-73
2021/12/30 02:00:32;;;;;;;117.22;28.65;;;;;;;1.01;100.00;98262.81;4312506;33;20072;-73
2021/12/30 02:03:00;;;;;;;116.25;27.65;;;;;;;1.20;100.00;98308.06;4311673;33;20037;-73
2021/12/30 02:05:29;;;;;;;84.97;24.63;;;;;;;1.24;100.00;98310.06;4310945;33;20070;-73
2021/12/30 02:07:56;;;;;;;109.65;25.15;;;;;;;1.07;100.00;98291.16;4313076;33;20184;-73
2021/12/30 02:10:22;;;;;;;116.05;25.35;;;;;;;1.19;100.00;98325.81;4311814;33;20110;-73
2021/12/30 02:12:50;;;;;;;156.45;26.27;;;;;;;1.20;100.00;98313.38;4299622;33;20394;-74
2021/12/30 02:15:17;;;;;;;161.12;25.70;;;;;;;1.23;100.00;98316.41;4310427;33;20062;-73
2021/12/30 02:17:48;;;;;;;126.43;26.55;;;;;;;1.15;100.00;98313.16;4312643;33;20466;-72
2021/12/30 02:20:40;;;;;;;102.43;22.48;;;;;;;1.16;100.00;98317.44;4299289;33;20074;-75
2021/12/30 02:23:07;;;;;;;98.67;21.10;;;;;;;1.26;100.00;98312.53;4310589;33;20037;-75
2021/12/30 02:25:34;;;;;;;84.20;25.08;;;;;;;1.24;100.00;98296.00;4312363;33;20145;-74
2021/12/30 02:28:05;;;;;;;140.27;24.42;;;;;;;0.97;100.00;98263.44;4312173;33;20129;-75
2021/12/30 02:30:32;;;;;;;133.90;24.03;;;;;;;1.28;100.00;98302.53;4310190;33;20099;-75
2021/12/30 02:32:58;;;;;;;101.57;23.20;;;;;;;1.14;100.00;98290.34;4311410;33;20074;-76
2021/12/30 02:35:25;;;;;;;187.18;25.90;;;;;;;0.96;100.00;98264.44;4311328;33;20447;-75
2021/12/30 02:37:51;;;;;;;136.75;28.10;;;;;;;1.23;100.00;98305.00;4310199;33;20041;-75
2021/12/30 02:40:32;;;;;;;239.02;27.83;;;;;;;1.12;100.00;98297.66;4311502;33;20048;-74
2021/12/30 02:42:59;;;;;;;219.43;31.15;;;;;;;0.94;100.00;98272.59;4309403;33;20049;-75
2021/12/30 02:45:27;;;;;;;139.30;23.08;;;;;;;1.09;100.00;98299.72;4311997;33;20044;-74
2021/12/30 02:47:53;;;;;;;163.98;24.48;;;;;;;1.11;100.00;98339.28;4312436;33;20041;-74
2021/12/30 02:50:20;;;;;;;208.55;25.40;;;;;;;1.08;100.00;98327.22;4310555;33;20374;-75
2021/12/30 02:52:46;;;;;;;129.20;25.55;;;;;;;1.14;100.00;98327.44;4312232;33;20253;-74
2021/12/30 02:55:13;;;;;;;252.65;27.20;;;;;;;0.97;100.00;98290.75;4310200;33;20071;-76
2021/12/30 02:57:40;;;;;;;189.98;27.52;;;;;;;0.96;100.00;98278.53;4311446;33;20059;-74
2021/12/30 03:00:10;;;;;;;212.50;29.05;;;;;;;0.95;100.00;98287.50;4311743;33;20433;-75
2021/12/30 03:02:39;;;;;;;120.75;24.08;;;;;;;1.12;100.00;98324.16;4311594;33;20486;-74
2021/12/30 03:05:08;;;;;;;117.25;24.08;;;;;;;1.15;100.00;98329.06;4311687;33;20044;-77
2021/12/30 03:07:36;;;;;;;138.23;24.87;;;;;;;1.12;100.00;98329.47;4310132;33;20029;-74
2021/12/30 03:10:03;;;;;;;237.12;34.25;;;;;;;0.77;100.00;98274.06;4311823;33;20041;-75
2021/12/30 03:12:30;;;;;;;127.55;24.92;;;;;;;1.12;100.00;98313.56;4293779;33;20045;-74
2021/12/30 03:14:58;;;;;;;111.20;23.27;;;;;;;1.14;100.00;98333.56;4310826;33;20033;-75
2021/12/30 03:17:32;;;;;;;147.50;22.13;;;;;;;1.02;100.00;98324.59;4312245;33;20048;-74
2021/12/30 03:19:58;;;;;;;140.43;23.10;;;;;;;0.88;100.00;98307.91;4311825;33;20045;-75
2021/12/30 03:22:25;;;;;;;218.57;26.75;;;;;;;1.16;100.00;98338.66;4310304;33;20041;-75
2021/12/30 03:24:51;;;;;;;102.28;22.52;;;;;;;1.17;100.00;98337.66;4310345;33;20171;-77
2021/12/30 03:27:18;;;;;;;141.32;22.40;;;;;;;1.17;100.00;98337.66;4310630;33;20041;-75
2021/12/30 03:29:44;;;;;;;133.63;23.15;;;;;;;1.02;100.00;98298.91;4311098;33;20041;-75
2021/12/30 03:32:11;;;;;;;84.20;22.35;;;;;;;1.31;100.00;98338.44;4311530;33;20074;-75
2021/12/30 03:34:38;;;;;;;98.10;19.50;;;;;;;1.24;100.00;98346.41;4311587;33;20044;-74
2021/12/30 03:37:04;;;;;;;105.00;20.35;;;;;;;1.22;100.00;98348.44;4308682;33;20028;-74
2021/12/30 03:39:31;;;;;;;83.78;19.35;;;;;;;1.17;100.00;98354.37;4310009;33;20049;-74
2021/12/30 03:41:59;;;;;;;108.45;20.17;;;;;;;1.22;100.00;98359.06;4310907;33;20038;-75
2021/12/30 03:44:25;;;;;;;93.12;21.70;;;;;;;0.82;100.00;98295.47;4310909;33;20066;-74
2021/12/30 03:46:52;;;;;;;67.60;21.30;;;;;;;1.38;100.00;98360.47;4309236;33;20045;-76
2021/12/30 03:49:18;;;;;;;78.28;19.75;;;;;;;1.10;100.00;98327.03;4311160;33;20174;-74
2021/12/30 03:51:45;;;;;;;80.82;20.27;;;;;;;1.26;100.00;98357.59;4310093;33;20037;-74
2021/12/30 03:54:11;;;;;;;94.07;20.25;;;;;;;1.08;100.00;98324.56;4310070;33;20049;-74
2021/12/30 03:56:38;;;;;;;69.07;20.23;;;;;;;1.05;100.00;98327.66;4308741;33;20190;-74
2021/12/30 03:59:05;;;;;;;73.25;21.25;;;;;;;1.22;100.00;98372.31;4310659;33;20072;-74
2021/12/30 04:01:31;;;;;;;79.15;20.23;;;;;;;1.34;100.00;98381.28;4310911;33;20079;-72
2021/12/30 04:03:58;;;;;;;63.65;19.27;;;;;;;1.25;100.00;98387.81;4311181;33;20097;-72
2021/12/30 04:06:27;;;;;;;121.43;22.65;;;;;;;1.31;100.00;98370.25;4309182;33;20067;-73
2021/12/30 04:08:55;;;;;;;79.72;17.98;;;;;;;1.36;100.00;98389.84;4310238;33;20108;-74
2021/12/30 04:11:30;;;;;;;62.72;19.67;;;;;;;1.16;100.00;98346.63;4310360;33;20088;-73
2021/12/30 04:13:56;;;;;;;99.93;22.05;;;;;;;1.15;100.00;98342.31;4311465;33;20058;-74
2021/12/30 04:16:23;;;;;;;68.62;20.55;;;;;;;1.38;100.00;98382.50;4309182;33;20044;-73
2021/12/30 04:18:49;;;;;;;83.45;21.45;;;;;;;1.34;100.00;98381.28;4309808;33;20075;-75
2021/12/30 04:21:18;;;;;;;97.75;21.98;;;;;;;1.30;100.00;98369.44;4310846;33;20036;-74
2021/12/30 04:23:45;;;;;;;76.70;20.20;;;;;;;1.20;100.00;98347.84;4297787;33;20401;-73
2021/12/30 04:26:12;;;;;;;76.65;21.98;;;;;;;1.29;100.00;98375.75;4311230;33;20396;-73
2021/12/30 04:28:39;;;;;;;72.32;21.23;;;;;;;1.35;100.00;98377.59;4309523;33;20063;-73
2021/12/30 04:31:06;;;;;;;68.28;18.15;;;;;;;1.30;100.00;98389.88;4309103;33;20053;-72
2021/12/30 04:33:32;;;;;;;73.90;20.60;;;;;;;1.32;100.00;98367.41;4311291;33;20121;-73
2021/12/30 04:36:00;;;;;;;63.53;19.52;;;;;;;1.27;100.00;98370.66;4298124;33;20058;-73
2021/12/30 04:38:29;;;;;;;62.20;19.75;;;;;;;1.29;100.00;98367.00;4311219;33;20082;-74
2021/12/30 04:40:56;;;;;;;94.55;20.23;;;;;;;1.42;100.00;98380.25;4308291;33;20053;-74
2021/12/30 04:43:22;;;;;;;74.07;19.50;;;;;;;1.01;100.00;98323.78;4308168;33;20401;-73
2021/12/30 04:45:50;;;;;;;99.37;21.45;;;;;;;1.39;100.00;98381.47;4309922;33;20063;-73
2021/12/30 04:48:17;;;;;;;79.75;21.98;;;;;;;1.35;100.00;98387.41;4310014;33;20041;-73
2021/12/30 04:50:45;;;;;;;89.57;22.48;;;;;;;1.16;100.00;98357.22;4310711;33;20063;-73
2021/12/30 04:53:13;;;;;;;172.98;22.65;;;;;;;1.36;100.00;98395.16;4311608;33;20040;-75
2021/12/30 04:55:40;;;;;;;112.47;23.27;;;;;;;1.27;100.00;98370.66;4313559;33;20195;-73
2021/12/30 04:58:06;;;;;;;93.80;22.85;;;;;;;1.51;100.00;98388.81;4312497;33;20498;-73
2021/12/30 05:00:34;;;;;;;149.00;26.52;;;;;;;1.41;100.00;98387.38;4313498;33;20044;-73
2021/12/30 05:05:30;;;;;;;100.62;23.42;;;;;;;1.41;100.00;98371.47;4310413;33;20045;-73
2021/12/30 05:07:57;;;;;;;96.93;24.35;;;;;;;1.37;100.00;98353.53;4312415;33;20081;-73
2021/12/30 05:10:24;;;;;;;81.57;22.20;;;;;;;1.34;100.00;98353.94;4299725;33;20501;-73
2021/12/30 05:12:50;;;;;;;87.15;24.17;;;;;;;1.28;100.00;98358.25;4313409;33;20074;-73
2021/12/30 05:15:17;;;;;;;89.68;25.67;;;;;;;1.41;100.00;98371.47;4311682;33;20048;-75
2021/12/30 05:17:44;;;;;;;73.22;19.83;;;;;;;1.14;100.00;98332.75;4312198;33;20079;-73
2021/12/30 05:20:12;;;;;;;78.87;22.42;;;;;;;1.34;100.00;98389.25;4311523;33;20036;-73
2021/12/30 05:22:40;;;;;;;73.07;22.23;;;;;;;1.14;100.00;98356.63;4313595;33;20040;-73
2021/12/30 05:25:07;;;;;;;68.45;23.05;;;;;;;1.05;100.00;98340.94;4311640;33;20394;-74
2021/12/30 05:27:34;;;;;;;83.32;22.62;;;;;;;1.42;100.00;98393.50;4312934;33;20088;-74
2021/12/30 05:30:01;;;;;;;72.43;22.13;;;;;;;1.52;100.00;98382.50;4312458;33;20382;-73
2021/12/30 05:32:27;;;;;;;81.10;23.08;;;;;;;1.54;100.00;98369.81;4311689;33;20460;-73
2021/12/30 05:34:54;;;;;;;84.22;23.73;;;;;;;1.50;100.00;98371.25;4311425;33;20041;-76
2021/12/30 05:37:20;;;;;;;81.20;23.05;;;;;;;1.32;100.00;98356.78;4311179;33;20075;-74
2021/12/30 05:39:47;;;;;;;95.65;25.65;;;;;;;1.41;100.00;98413.13;4313044;33;20071;-73
2021/12/30 05:42:13;;;;;;;79.35;23.25;;;;;;;1.49;100.00;98417.41;4313007;33;20520;-73
2021/12/30 05:44:40;;;;;;;94.22;26.27;;;;;;;1.54;100.00;98425.56;4312288;33;20055;-73
2021/12/30 05:47:13;;;;;;;86.25;26.65;;;;;;;1.45;100.00;98420.47;4310054;33;20457;-74
2021/12/30 05:49:40;;;;;;;112.55;27.08;;;;;;;1.26;100.00;98395.56;4312213;33;20886;-73
2021/12/30 05:52:06;;;;;;;88.75;23.08;;;;;;;1.42;100.00;98435.94;4312682;33;20421;-73
2021/12/30 05:54:32;;;;;;;125.15;33.42;;;;;;;1.26;100.00;98384.13;4312753;33;20110;-73
2021/12/30 05:56:59;;;;;;;114.85;23.25;;;;;;;1.51;100.00;98433.91;4312642;33;20053;-74
2021/12/30 05:59:26;;;;;;;104.60;27.23;;;;;;;1.60;100.00;98432.69;4310802;33;20437;-73
2021/12/30 06:01:52;;;;;;;102.75;25.62;;;;;;;1.53;100.00;98431.87;4311808;33;20044;-73
2021/12/30 06:04:19;;;;;;;91.32;27.20;;;;;;;1.40;100.00;98396.38;4312543;33;20098;-73
2021/12/30 06:06:45;;;;;;;75.53;24.00;;;;;;;1.72;100.00;98424.91;4311930;33;20029;-73
2021/12/30 06:09:12;;;;;;;79.22;22.90;;;;;;;1.60;100.00;98422.06;4297851;33;20058;-74
2021/12/30 06:11:38;;;;;;;81.40;22.55;;;;;;;1.43;100.00;98385.34;4312287;33;20056;-72
2021/12/30 06:14:05;;;;;;;70.50;20.70;;;;;;;1.57;100.00;98425.94;4312662;33;20024;-74
2021/12/30 06:16:33;;;;;;;107.82;25.80;;;;;;;1.59;100.00;98431.06;4312627;33;20063;-72
2021/12/30 06:19:00;;;;;;;87.82;25.58;;;;;;;1.67;100.00;98422.87;4299151;33;20355;-72
2021/12/30 06:21:26;;;;;;;96.28;27.17;;;;;;;1.52;100.00;98427.59;4310034;33;20066;-74
2021/12/30 06:23:53;;;;;;;114.15;26.12;;;;;;;1.57;100.00;98433.09;4312126;33;20122;-73
2021/12/30 06:26:19;;;;;;;89.93;24.65;;;;;;;1.57;100.00;98423.28;4312232;33;20045;-73
2021/12/30 06:28:46;;;;;;;70.95;23.23;;;;;;;1.64;100.00;98441.84;4312468;33;20037;-73
2021/12/30 06:31:12;;;;;;;79.32;24.55;;;;;;;1.71;100.00;98440.03;4311662;33;20106;-73
2021/12/30 06:33:39;;;;;;;69.62;23.27;;;;;;;1.38;100.00;98398.41;4312103;33;20064;-73
2021/12/30 06:36:06;;;;;;;63.58;22.30;;;;;;;1.41;100.00;98413.91;4311421;33;20041;-74
2021/12/30 06:38:33;;;;;;;76.65;22.23;;;;;;;1.65;100.00;98445.34;4310903;33;20076;-72
2021/12/30 06:41:00;;;;;;;74.10;20.12;;;;;;;1.66;100.00;98453.09;4312300;33;20037;-75
2021/12/30 06:43:27;;;;;;;68.95;23.40;;;;;;;1.68;100.00;98451.06;4310673;33;20041;-72
2021/12/30 06:45:53;;;;;;;65.80;21.40;;;;;;;1.71;100.00;98450.62;4309806;33;20172;-73
2021/12/30 06:48:20;;;;;;;66.80;22.62;;;;;;;1.50;100.00;98411.06;4312189;33;20451;-74
2021/12/30 06:50:52;;;;;;;68.00;21.52;;;;;;;1.71;100.00;98441.84;4312246;33;20062;-77
2021/12/30 06:53:23;;;;;;;60.03;21.67;;;;;;;1.64;100.00;98449.81;4309341;33;20374;-74
2021/12/30 06:55:52;;;;;;;66.95;22.98;;;;;;;1.58;100.00;98434.72;4311176;33;20402;-74
2021/12/30 06:58:19;;;;;;;49.38;19.33;;;;;;;1.61;100.00;98459.03;4312102;33;20392;-73
2021/12/30 07:00:47;;;;;;;52.80;18.65;;;;;;;1.68;100.00;98448.41;4298641;33;20051;-74
2021/12/30 07:03:14;;;;;;;62.15;19.90;;;;;;;1.51;100.00;98404.72;4309611;33;20057;-75
2021/12/30 07:05:40;;;;;;;59.35;19.87;;;;;;;1.75;100.00;98451.84;4299202;33;20079;-73
2021/12/30 07:08:07;;;;;;;62.30;22.62;;;;;;;1.55;100.00;98413.94;4311523;33;20045;-73
2021/12/30 07:10:34;;;;;;;66.12;23.45;;;;;;;1.84;100.00;98467.56;4309443;33;20074;-73
2021/12/30 07:13:01;;;;;;;59.28;22.40;;;;;;;1.77;100.00;98468.41;4310679;33;20033;-73
2021/12/30 07:15:27;;;;;;;69.90;22.70;;;;;;;1.75;100.00;98472.28;4309095;33;20082;-73
2021/12/30 07:17:54;;;;;;;74.95;24.60;;;;;;;1.61;100.00;98444.91;4311684;33;20519;-72
2021/12/30 07:20:20;;;;;;;61.60;23.38;;;;;;;1.83;100.00;98484.50;4311469;33;20049;-73
2021/12/30 07:22:46;;;;;;;84.40;27.58;;;;;;;1.86;100.00;98492.87;4312056;33;20078;-73
2021/12/30 07:25:16;;;;;;;67.20;22.52;;;;;;;1.89;100.00;98484.50;4309611;33;20078;-73
2021/12/30 07:27:48;;;;;;;78.30;27.37;;;;;;;1.85;100.00;98479.81;4310133;33;20072;-73
2021/12/30 07:30:17;;;;;;;83.62;31.33;;;;;;;1.83;100.00;98474.69;4310832;33;20088;-73
2021/12/30 07:32:43;;;;;;;67.55;24.00;;;;;;;1.76;100.00;98472.06;4298417;33;20040;-73
2021/12/30 07:35:10;;;;;;;63.53;25.90;;;;;;;1.68;100.00;98435.12;4311289;33;20062;-73
2021/12/30 07:37:37;;;;;;;67.07;24.92;;;;;;;1.88;100.00;98477.53;4296114;33;20059;-73
2021/12/30 07:40:04;;;;;;;70.35;23.77;;;;;;;1.90;100.00;98470.22;4309569;33;20041;-73
2021/12/30 07:42:31;;;;;;;67.37;22.92;;;;;;;2.02;100.00;98477.53;4311621;33;20083;-73
2021/12/30 07:44:58;;;;;;;64.68;24.30;;;;;;;1.99;100.00;98479.59;4310556;33;20070;-73
2021/12/30 07:47:24;;;;;;;61.88;26.50;;;;;;;1.79;100.00;98436.34;4310700;33;20055;-74
2021/12/30 07:49:51;;;;;;;65.32;26.77;;;;;;;1.92;100.00;98467.34;4308512;33;20317;-77
2021/12/30 07:52:18;;;;;;;74.35;25.55;;;;;;;1.97;100.00;98478.97;4309381;33;20045;-74
2021/12/30 07:54:44;;;;;;;63.40;25.05;;;;;;;1.88;100.00;98463.47;4310996;33;20384;-74
2021/12/30 07:57:12;;;;;;;65.37;24.40;;;;;;;1.73;100.00;98437.97;4310244;33;20082;-74
2021/12/30 07:59:39;;;;;;;61.15;23.90;;;;;;;2.07;100.00;98481.19;4308849;33;20048;-76
2021/12/30 08:02:06;;;;;;;67.65;25.45;;;;;;;2.05;100.00;98485.91;4307323;33;20061;-74
2021/12/30 08:04:39;;;;;;;57.00;23.58;;;;;;;2.05;100.00;98477.13;4308404;33;20083;-74
2021/12/30 08:07:06;;;;;;;63.65;23.35;;;;;;;2.13;100.00;98485.66;4311562;33;20385;-74
2021/12/30 08:09:32;;;;;;;57.17;22.55;;;;;;;1.91;100.00;98449.78;4310648;33;20520;-74
2021/12/30 08:12:00;;;;;;;66.40;22.40;;;;;;;2.06;100.00;98490.19;4307805;33;20083;-74
2021/12/30 08:14:27;;;;;;;54.63;21.70;;;;;;;2.25;100.00;98498.31;4311147;33;20083;-75
2021/12/30 08:16:54;;;;;;;62.15;23.25;;;;;;;2.09;100.00;98495.09;4311259;33;20048;-75
2021/12/30 08:19:20;;;;;;;50.38;22.50;;;;;;;2.08;100.00;98493.47;4309987;33;20037;-75
2021/12/30 08:21:47;;;;;;;57.17;22.52;;;;;;;2.10;100.00;98490.59;4310129;33;20052;-76
2021/12/30 08:24:14;;;;;;;62.92;22.67;;;;;;;2.17;100.00;98492.22;4310167;33;20064;-75
2021/12/30 08:26:40;;;;;;;49.65;22.05;;;;;;;1.99;100.00;98462.81;4312388;33;20440;-75
2021/12/30 08:29:15;;;;;;;50.08;21.12;;;;;;;1.98;100.00;98463.88;4314105;33;20095;-75
2021/12/30 08:31:41;;;;;;;53.70;22.45;;;;;;;2.05;100.00;98477.13;4313457;33;20379;-76
2021/12/30 08:34:08;;;;;;;58.97;20.80;;;;;;;2.34;100.00;98508.50;4312284;33;20066;-75
2021/12/30 08:36:34;;;;;;;50.35;20.50;;;;;;;2.36;100.00;98510.94;4299889;33;20404;-74
2021/12/30 08:39:01;;;;;;;57.42;20.92;;;;;;;2.17;100.00;98486.91;4300788;33;20495;-74
2021/12/30 08:41:27;;;;;;;47.05;20.90;;;;;;;2.39;100.00;98520.34;4311542;33;20339;-74
2021/12/30 08:43:54;;;;;;;60.22;20.80;;;;;;;2.32;100.00;98504.44;4312652;33;20036;-76
2021/12/30 08:46:20;;;;;;;47.40;20.27;;;;;;;2.39;100.00;98515.84;4313153;33;20044;-75
2021/12/30 08:48:47;;;;;;;53.03;21.73;;;;;;;2.44;100.00;98517.88;4313785;33;20041;-75
2021/12/30 08:51:13;;;;;;;56.75;21.45;;;;;;;2.34;100.00;98502.38;4312196;33;20075;-75
2021/12/30 08:53:41;;;;;;;49.83;22.13;;;;;;;2.24;100.00;98480.75;4307468;33;20070;-75
2021/12/30 08:56:08;;;;;;;52.67;21.40;;;;;;;2.42;100.00;98515.44;4310495;33;20090;-75
2021/12/30 08:58:35;;;;;;;55.67;21.15;;;;;;;2.47;100.00;98518.28;4312641;33;21001;-74
2021/12/30 09:01:02;;;;;;;48.78;21.27;;;;;;;2.51;100.00;98508.84;4312144;33;20049;-74
2021/12/30 09:03:29;;;;;;;45.15;20.20;;;;;;;2.32;100.00;98464.59;4312953;33;20036;-74
2021/12/30 09:05:55;;;;;;;44.95;19.08;;;;;;;2.62;100.00;98522.53;4312470;33;20045;-74
2021/12/30 09:08:22;;;;;;;46.65;19.15;;;;;;;2.63;100.00;98521.50;4306430;33;20059;-74
2021/12/30 09:10:50;;;;;;;45.28;19.00;;;;;;;2.64;100.00;98512.50;4309865;33;20052;-74
2021/12/30 09:13:19;;;;;;;56.35;21.87;;;;;;;2.62;100.00;98509.25;4310250;33;20092;-74
2021/12/30 09:15:46;;;;;;;46.22;20.80;;;;;;;2.67;100.00;98506.75;4311215;33;20033;-74
2021/12/30 09:18:20;;;;;;;53.70;19.55;;;;;;;2.67;100.00;98496.12;4303873;33;20033;-75
2021/12/30 09:20:46;;;;;;;48.83;21.10;;;;;;;2.67;100.00;98506.75;4312863;33;20386;-73
2021/12/30 09:23:15;;;;;;;53.63;20.40;;;;;;;2.72;100.00;98513.06;4312618;33;20445;-74
2021/12/30 09:25:41;;;;;;;48.38;21.50;;;;;;;2.80;100.00;98525.31;4310660;33;20067;-74
2021/12/30 09:28:12;;;;;;;47.38;21.75;;;;;;;2.73;100.00;98516.56;4311494;33;20057;-76
2021/12/30 09:30:40;;;;;;;49.78;19.95;;;;;;;2.57;100.00;98506.38;4311746;33;20048;-73
2021/12/30 09:33:08;;;;;;;46.17;19.85;;;;;;;2.76;100.00;98523.28;4311921;33;20412;-73
2021/12/30 09:35:35;;;;;;;46.88;19.75;;;;;;;2.64;100.00;98509.84;4312680;33;20063;-73
2021/12/30 09:38:01;;;;;;;45.42;21.02;;;;;;;2.75;100.00;98511.84;4311960;33;20074;-74
2021/12/30 09:40:29;;;;;;;49.17;20.98;;;;;;;2.78;100.00;98518.59;4309358;33;20049;-75
2021/12/30 09:43:04;;;;;;;45.53;18.70;;;;;;;2.75;100.00;98519.00;4312523;33;20078;-74
2021/12/30 09:45:35;;;;;;;43.15;19.23;;;;;;;2.70;100.00;98516.97;4312271;33;20045;-73
2021/12/30 09:48:05;;;;;;;58.55;21.17;;;;;;;2.75;100.00;98509.19;4311077;33;20029;-74
2021/12/30 09:50:36;;;;;;;48.40;18.15;;;;;;;2.81;100.00;98518.97;4310748;33;20071;-74
2021/12/30 09:53:03;;;;;;;49.42;18.62;;;;;;;2.84;100.00;98517.72;4297060;33;20139;-74
2021/12/30 09:55:31;;;;;;;46.53;19.33;;;;;;;2.78;100.00;98498.13;4309282;33;20063;-74
2021/12/30 10:00:33;;;;;;;55.33;21.87;;;;;;;2.59;100.00;98488.41;4310818;33;20233;-73
2021/12/30 10:03:00;;;;;;;42.45;16.73;;;;;;;2.81;100.00;98518.97;4311433;33;20044;-73
2021/12/30 10:05:30;;;;;;;41.15;15.95;;;;;;;2.44;100.00;98476.19;4311146;33;20041;-73
2021/12/30 10:08:18;;;;;;;43.05;17.67;;;;;;;2.54;100.00;98519.06;4310057;33;20113;-74
2021/12/30 10:10:52;;;;;;;41.92;16.40;;;;;;;2.69;100.00;98525.97;4294918;33;20088;-73
2021/12/30 10:13:27;;;;;;;39.92;17.05;;;;;;;2.74;100.00;98510.19;4308441;33;20059;-73
2021/12/30 10:15:58;;;;;;;43.87;18.52;;;;;;;2.66;100.00;98513.09;4280434;33;20058;-74
2021/12/30 10:18:41;;;;;;;41.20;17.52;;;;;;;2.62;100.00;98503.94;4282425;33;20041;-73
2021/12/30 10:21:17;;;;;;;42.78;15.93;;;;;;;2.80;100.00;98506.69;4296491;33;20400;-74
2021/12/30 10:23:47;;;;;;;43.78;20.20;;;;;;;2.80;100.00;98501.38;4301298;33;20096;-73
2021/12/30 10:26:14;;;;;;;45.50;19.60;;;;;;;2.76;100.00;98502.00;4296343;33;20063;-77
2021/12/30 10:28:43;;;;;;;50.55;19.95;;;;;;;2.57;100.00;98458.53;4296637;33;20049;-75
2021/12/30 10:31:12;;;;;;;43.28;19.30;;;;;;;2.92;100.00;98488.25;4295539;33;20112;-76
2021/12/30 10:33:50;;;;;;;45.92;20.55;;;;;;;2.67;100.00;98458.91;4293440;33;20091;-74
2021/12/30 10:36:23;;;;;;;40.45;17.83;;;;;;;2.77;100.00;98496.47;4290181;33;20044;-74
2021/12/30 10:38:50;;;;;;;44.45;19.85;;;;;;;2.84;100.00;98491.13;4293193;33;20037;-75
2021/12/30 10:41:23;;;;;;;42.53;18.90;;;;;;;2.67;100.00;98458.91;4301879;33;20355;-74
2021/12/30 10:43:55;;;;;;;44.42;19.60;;;;;;;2.67;100.00;98448.28;4307596;33;20049;-74
2021/12/30 10:46:24;;;;;;;45.88;17.98;;;;;;;2.78;100.00;98476.03;4296878;33;20070;-74
2021/12/30 10:49:01;;;;;;;45.78;19.15;;;;;;;2.62;100.00;98453.44;4291345;33;20092;-75
2021/12/30 10:51:53;;;;;;;50.03;18.80;;;;;;;2.57;100.00;98437.28;4295809;33;20055;-74
2021/12/30 10:54:26;;;;;;;42.83;18.70;;;;;;;2.84;100.00;98470.69;4291608;33;20055;-76
2021/12/30 10:56:55;;;;;;;;;;;;;;;2.79;100.00;98473.16;4295802;33;21066;-74
2021/12/30 10:59:30;;;;;;;38.25;16.15;;;;;;;2.81;100.00;98472.94;4298182;33;19940;-74
2021/12/30 11:02:22;;;;;;;47.67;18.92;;;;;;;2.60;100.00;98434.19;4308414;33;20070;-75
2021/12/30 11:04:53;;;;;;;42.22;20.55;;;;;;;2.83;100.00;98463.72;4303060;33;20071;-74
2021/12/30 11:07:42;;;;;;;44.67;18.20;;;;;;;2.83;100.00;98473.56;4311753;33;20049;-74
2021/12/30 11:10:37;;;;;;;50.75;20.05;;;;;;;3.27;100.00;98442.56;4438542;32;20068;-73
2021/12/30 11:13:13;;;;;;;45.45;17.92;;;;;;;3.27;100.00;98442.56;4425764;32;20366;-74
2021/12/30 11:15:41;;;;;;;45.72;20.77;;;;;;;2.90;100.00;98435.25;4424274;32;20031;-73
2021/12/30 11:18:16;;;;;;;48.67;21.25;;;;;;;2.62;100.00;98394.94;4422556;32;20340;-73
2021/12/30 11:20:48;;;;;;;44.33;17.83;;;;;;;2.79;100.00;98425.28;4426169;32;20113;-75
2021/12/30 11:23:17;;;;;;;44.03;20.15;;;;;;;2.59;100.00;98387.41;4426969;32;20123;-74
2021/12/30 11:25:46;;;;;;;49.22;20.55;;;;;;;2.62;100.00;98376.34;4426832;32;20042;-73
2021/12/30 11:28:12;;;;;;;46.75;20.45;;;;;;;2.56;100.00;98377.19;4421351;32;20044;-73